Goulburn, Australia
Current Conditions -  °F | °C
As of 1:03 AM on Wednesday 22 Oct 2014 (Local Time) from YSCB Reporting Station
Overcast Overcast  
Wind Chill: 50°   Ceiling: 1700
Heat Index: 50°   Visibility: 6mi
Dew Point: 45°   Wind: 6mph
Humidity: 82%   Direction: 70°ENE
Pressure: 30.39"   Gusts: NA
Location:  34.76°S, 149.72°E
Report Text: YSCB 211403Z AUTO 07005KT 9999 // BKN017 OVC029 10/07 Q1029
Loading
Personal Weather Stations






























Interactive Weather Map
Tropical Storm Tracking
New forecast layout! Learn more

10-Day Weather Forecast

Advertisements
Track Severe Weather on mobile